createdAt,value
2023-02-05T00:04:15.432Z,7.52
2023-02-05T00:09:18.138Z,7.59
2023-02-05T00:14:19.814Z,7.54
2023-02-05T00:19:21.456Z,7.49
2023-02-05T00:24:23.206Z,7.41
2023-02-05T00:29:24.807Z,7.40
2023-02-05T00:34:26.415Z,7.44
2023-02-05T00:39:28.124Z,7.38
2023-02-05T00:44:29.909Z,7.44
2023-02-05T00:49:31.562Z,7.43
2023-02-05T00:54:33.239Z,7.40
2023-02-05T00:59:34.921Z,7.43
2023-02-05T01:04:36.532Z,7.45
2023-02-05T01:09:38.321Z,7.33
2023-02-05T01:14:41.396Z,7.43
2023-02-05T01:19:43.037Z,7.45
2023-02-05T01:24:44.778Z,7.46
2023-02-05T01:29:46.600Z,7.40
2023-02-05T01:34:49.007Z,7.35
2023-02-05T01:39:50.796Z,7.37
2023-02-05T01:45:21.661Z,7.23
2023-02-05T01:50:32.292Z,7.21
2023-02-05T01:55:39.624Z,7.18
2023-02-05T02:00:41.661Z,7.24
2023-02-05T02:05:43.436Z,7.19
2023-02-05T02:10:48.616Z,7.34
2023-02-05T02:15:50.613Z,7.32
2023-02-05T02:21:38.977Z,7.35
2023-02-05T02:27:05.442Z,7.36
2023-02-05T02:32:24.363Z,7.36
2023-02-05T02:37:34.434Z,7.35
2023-02-05T02:42:46.326Z,7.39
2023-02-05T02:47:53.284Z,7.45
2023-02-05T02:52:56.372Z,7.52
2023-02-05T02:57:59.570Z,7.44
2023-02-05T03:03:05.483Z,7.45
2023-02-05T03:08:13.862Z,7.42
2023-02-05T03:13:15.665Z,7.42
2023-02-05T03:18:24.000Z,7.35
2023-02-05T03:23:29.755Z,7.32
2023-02-05T03:28:32.168Z,7.20
2023-02-05T03:33:57.859Z,7.16
2023-02-05T03:39:16.339Z,7.18
2023-02-05T03:44:50.758Z,7.08
2023-02-05T03:50:07.175Z,7.23
2023-02-05T03:55:17.451Z,7.19
2023-02-05T04:00:20.346Z,7.29
2023-02-05T04:05:26.835Z,7.27
2023-02-05T04:10:31.859Z,7.60
2023-02-05T04:15:36.223Z,7.99
2023-02-05T04:20:41.772Z,8.12
2023-02-05T04:25:44.417Z,7.86
2023-02-05T04:30:49.823Z,7.66
2023-02-05T04:35:51.609Z,7.76
2023-02-05T04:40:53.558Z,8.11
2023-02-05T04:45:55.251Z,7.78
2023-02-05T04:50:56.887Z,8.23
2023-02-05T04:56:10.110Z,8.35
2023-02-05T05:01:20.622Z,8.89
2023-02-05T05:06:22.424Z,8.91
2023-02-05T05:11:24.054Z,9.15
2023-02-05T05:16:25.800Z,9.17
2023-02-05T05:21:27.380Z,9.04
2023-02-05T05:26:29.007Z,8.36
2023-02-05T05:31:30.633Z,8.93
2023-02-05T05:36:32.376Z,8.81
2023-02-05T05:41:53.000Z,8.40
2023-02-05T05:46:54.771Z,8.44
2023-02-05T05:51:56.414Z,7.98
2023-02-05T05:56:57.996Z,8.86
2023-02-05T06:02:01.392Z,8.58
2023-02-05T06:07:03.004Z,8.93
2023-02-05T06:12:04.765Z,8.81
2023-02-05T06:17:07.469Z,8.99
2023-02-05T06:22:09.308Z,9.30
2023-02-05T06:27:10.975Z,8.93
2023-02-05T06:32:12.611Z,9.29
2023-02-05T06:37:14.619Z,8.64
2023-02-05T06:42:16.230Z,7.93
2023-02-05T06:47:17.961Z,8.39
2023-02-05T06:52:19.592Z,8.36
2023-02-05T06:57:21.263Z,7.60
2023-02-05T07:02:22.907Z,7.84
2023-02-05T07:07:24.508Z,7.95
2023-02-05T07:12:26.387Z,8.47
2023-02-05T07:17:27.973Z,8.18
2023-02-05T07:22:29.635Z,8.03
2023-02-05T07:27:31.335Z,8.26
2023-02-05T07:32:32.922Z,7.92
2023-02-05T07:37:37.351Z,8.20
2023-02-05T07:42:38.968Z,8.21
2023-02-05T07:47:42.533Z,8.18
2023-02-05T07:52:44.434Z,7.98
2023-02-05T07:57:47.183Z,8.25
2023-02-05T08:02:49.589Z,8.81
2023-02-05T08:07:51.463Z,8.41
2023-02-05T08:12:53.178Z,8.48
2023-02-05T08:17:55.397Z,9.12
2023-02-05T08:22:57.177Z,8.72
2023-02-05T08:27:58.960Z,9.00
2023-02-05T08:33:00.753Z,9.28
2023-02-05T08:38:03.780Z,9.30
2023-02-05T08:43:05.550Z,9.06
2023-02-05T08:48:07.873Z,9.53
2023-02-05T08:53:09.789Z,9.07
2023-02-05T08:58:11.636Z,8.70
2023-02-05T09:03:13.384Z,9.06
2023-02-05T09:08:15.041Z,9.47
2023-02-05T09:13:16.787Z,9.20
2023-02-05T09:18:18.580Z,9.86
2023-02-05T09:23:20.601Z,10.34
2023-02-05T09:28:22.378Z,10.31
2023-02-05T09:33:24.168Z,10.31
2023-02-05T09:38:25.793Z,10.39
2023-02-05T09:43:52.351Z,10.62
2023-02-05T09:49:42.286Z,10.07
2023-02-05T09:54:49.728Z,10.00
2023-02-05T09:59:51.456Z,9.79
2023-02-05T10:04:54.912Z,10.65
2023-02-05T10:10:16.106Z,10.19
2023-02-05T10:15:53.280Z,10.64
2023-02-05T10:21:13.351Z,10.75
2023-02-05T10:26:18.372Z,10.69
2023-02-05T10:31:42.243Z,10.55
2023-02-05T10:36:49.267Z,10.72
2023-02-05T10:42:06.841Z,9.88
2023-02-05T10:47:24.909Z,10.74
2023-02-05T10:52:26.922Z,10.73
2023-02-05T10:57:34.051Z,10.39
2023-02-05T11:02:41.498Z,10.22
2023-02-05T11:07:49.613Z,10.26
2023-02-05T11:12:55.761Z,10.52
2023-02-05T11:18:04.469Z,10.41
2023-02-05T11:23:17.966Z,10.29
2023-02-05T11:28:27.820Z,10.47
2023-02-05T11:33:31.439Z,11.31
2023-02-05T11:38:42.195Z,10.77
2023-02-05T11:43:50.972Z,11.18
2023-02-05T11:49:00.853Z,10.53
2023-02-05T11:54:07.618Z,10.37
2023-02-05T11:59:22.774Z,10.35
2023-02-05T12:04:26.370Z,10.16
2023-02-05T12:09:28.092Z,10.95
2023-02-05T12:15:00.939Z,11.22
2023-02-05T12:20:16.725Z,11.40
2023-02-05T12:25:51.668Z,11.08
2023-02-05T12:30:58.054Z,10.40
2023-02-05T12:36:27.090Z,11.10
2023-02-05T12:41:53.190Z,10.46
2023-02-05T12:47:19.705Z,10.78
2023-02-05T12:53:13.915Z,10.68
2023-02-05T12:58:19.135Z,10.81
2023-02-05T13:03:38.833Z,10.74
2023-02-05T13:09:05.511Z,10.51
2023-02-05T13:14:19.998Z,10.28
2023-02-05T13:19:30.930Z,10.07
2023-02-05T13:25:06.808Z,10.19
2023-02-05T13:30:16.884Z,9.86
2023-02-05T13:35:22.034Z,10.61
2023-02-05T13:40:47.325Z,10.79
2023-02-05T13:46:38.976Z,10.74
2023-02-05T13:51:55.821Z,11.00
2023-02-05T13:57:31.536Z,10.56
2023-02-05T14:02:43.497Z,10.96
2023-02-05T14:07:50.874Z,10.76
2023-02-05T14:12:52.978Z,10.86
2023-02-05T14:17:55.902Z,10.38
2023-02-05T14:23:01.078Z,10.71
2023-02-05T14:28:08.944Z,10.38
2023-02-05T14:33:10.682Z,10.30
2023-02-05T14:38:31.208Z,10.42
2023-02-05T14:43:36.422Z,10.58
2023-02-05T14:48:43.185Z,10.64
2023-02-05T14:53:55.877Z,10.52
2023-02-05T14:59:05.217Z,10.44
2023-02-05T15:04:20.446Z,10.38
2023-02-05T15:09:45.993Z,10.36
2023-02-05T15:14:47.546Z,10.56
2023-02-05T15:20:05.932Z,9.96
2023-02-05T15:25:28.167Z,9.58
2023-02-05T15:30:45.989Z,10.28
2023-02-05T15:35:49.886Z,9.45
2023-02-05T15:40:52.627Z,10.21
2023-02-05T15:46:14.635Z,10.16
2023-02-05T15:51:28.744Z,9.50
2023-02-05T15:56:41.399Z,9.31
2023-02-05T16:01:49.494Z,10.18
2023-02-05T16:06:51.130Z,9.50
2023-02-05T16:11:53.193Z,9.65
2023-02-05T16:17:25.234Z,9.08
2023-02-05T16:22:42.681Z,9.01
2023-02-05T16:27:49.457Z,8.75
2023-02-05T16:32:55.821Z,8.71
2023-02-05T16:37:58.977Z,8.73
2023-02-05T16:43:16.100Z,8.60
2023-02-05T16:48:23.405Z,8.50
2023-02-05T16:53:31.615Z,8.83
2023-02-05T16:58:38.372Z,8.89
2023-02-05T17:03:41.553Z,8.90
2023-02-05T17:08:52.940Z,9.15
2023-02-05T17:14:12.930Z,8.81
2023-02-05T17:19:33.228Z,8.88
2023-02-05T17:24:34.910Z,8.81
2023-02-05T17:29:37.780Z,8.25
2023-02-05T17:34:39.683Z,8.28
2023-02-05T17:39:41.671Z,8.32
2023-02-05T17:44:43.337Z,8.45
2023-02-05T17:49:45.052Z,8.25
2023-02-05T17:54:47.508Z,8.00
2023-02-05T17:59:50.295Z,8.47
2023-02-05T18:04:52.633Z,8.59
2023-02-05T18:09:54.401Z,8.33
2023-02-05T18:14:56.376Z,7.91
2023-02-05T18:19:58.042Z,7.67
2023-02-05T18:24:59.759Z,7.63
2023-02-05T18:30:01.768Z,7.84
2023-02-05T18:35:14.988Z,7.95
2023-02-05T18:40:16.903Z,7.82
2023-02-05T18:45:19.445Z,7.68
2023-02-05T18:50:21.979Z,7.52
2023-02-05T18:55:23.767Z,7.48
2023-02-05T19:00:25.533Z,7.49
2023-02-05T19:05:27.748Z,7.66
2023-02-05T19:10:29.566Z,7.51
2023-02-05T19:15:31.786Z,7.49
2023-02-05T19:20:34.427Z,7.49
2023-02-05T19:25:37.332Z,7.63
2023-02-05T19:30:39.242Z,7.48
2023-02-05T19:35:41.334Z,7.48
2023-02-05T19:40:43.278Z,7.47
2023-02-05T19:45:45.469Z,7.54
2023-02-05T19:50:47.187Z,7.43
2023-02-05T19:55:49.117Z,7.14
2023-02-05T20:00:51.628Z,7.26
2023-02-05T20:05:53.510Z,7.26
2023-02-05T20:11:00.002Z,7.25
2023-02-05T20:16:07.625Z,7.16
2023-02-05T20:21:12.247Z,7.14
2023-02-05T20:26:18.926Z,7.11
2023-02-05T20:31:33.517Z,7.09
2023-02-05T20:36:37.729Z,6.98
2023-02-05T20:41:39.437Z,6.89
2023-02-05T20:46:41.450Z,6.78
2023-02-05T20:51:43.783Z,6.85
2023-02-05T20:56:45.433Z,6.81
2023-02-05T21:01:47.244Z,6.79
2023-02-05T21:06:49.422Z,6.80
2023-02-05T21:11:55.480Z,6.80
2023-02-05T21:16:57.379Z,6.82
2023-02-05T21:21:59.362Z,6.88
2023-02-05T21:27:01.233Z,6.87
2023-02-05T21:32:02.970Z,6.82
2023-02-05T21:37:04.638Z,6.79
2023-02-05T21:42:06.346Z,6.76
2023-02-05T21:47:08.020Z,6.73
2023-02-05T21:52:09.856Z,6.75
2023-02-05T21:57:11.533Z,6.83
2023-02-05T22:02:13.277Z,6.89
2023-02-05T22:07:14.900Z,6.88
2023-02-05T22:12:16.489Z,6.65
2023-02-05T22:17:18.237Z,6.66
2023-02-05T22:22:19.899Z,6.85
2023-02-05T22:27:21.723Z,6.91
2023-02-05T22:32:23.554Z,6.95
2023-02-05T22:37:25.219Z,6.91
2023-02-05T22:42:27.010Z,6.82
2023-02-05T22:47:29.281Z,6.93
2023-02-05T22:52:30.879Z,6.92
2023-02-05T22:57:32.551Z,6.80
2023-02-05T23:02:34.581Z,6.85
2023-02-05T23:07:36.210Z,6.82
2023-02-05T23:12:37.841Z,6.87
2023-02-05T23:17:39.542Z,6.81
2023-02-05T23:22:41.260Z,6.81
2023-02-05T23:27:43.003Z,6.82
2023-02-05T23:32:44.762Z,6.89
2023-02-05T23:37:46.409Z,6.86
2023-02-05T23:42:48.001Z,6.91
2023-02-05T23:47:49.583Z,6.92
2023-02-05T23:52:51.285Z,6.89
2023-02-05T23:57:53.480Z,6.78
